KFNB

Brenner Field Airport

Falls City, Nebraska, USA
METAR KFNB 231053Z AUTO 32017G22KT 10SM OVC012 M03/M05 A3004 RMK AO2 PK WND 30026/1012 SLP182 T10281050
Observed Flight Rules
Jan-23 @ 10:53 UTC (an hour ago) Marginal Visual Flight Rules
Wind Visibility Clouds
320° at 17 knots
 Gusting to 22 knots
10 miles
  • Overcast at 1,200' AGL
Temperatures Readings
Current -3°C / 27°F
Dewpoint -5°C / 23°F
Humidity 86%
Altimeter 30.04" Hg
Pressure 1018.2 hPa
Elevation 300
METAR KFNB 231053Z AUTO 32017G22KT 10SM OVC012 M03/M05 A3004 RMK AO2 PK WND 30026/1012 SLP182 T10281050
Observed Flight Rules
Jan-23 @ 10:53 UTC
(an hour ago)
MVFR
Wind Visibility
320° at 17 knots
 Gusting to 22 knots
10 miles
Clouds
  • Overcast at 1,200' AGL
Temperature Dewpoint
-3°C / 27°F -5°C / 23°F
Humidity Altimeter Pressure
86% 30.04" Hg 1018.2 hPa